Time;durP1;ratioP1;P1;durP2;ratioP2;P2;SDS_P1;SDS_P2;PMS_P1;PMS_P2;Temp;Humidity;BMP_temperature;BMP_pressure;BME280_temperature;BME280_humidity;BME280_pressure;Samples;Min_cycle;Max_cycle;Signal;HPM_P1;HPM_P2
2022/03/13 00:00:59;;;;;;;8.88;4.05;;;;;;;5.18;38.82;101747.94;2087678;28;42763;-76
2022/03/13 00:02:02;;;;;;;6.07;3.92;;;;;;;5.15;39.03;101748.81;2078735;28;46602;-75
2022/03/13 00:03:09;;;;;;;7.30;4.03;;;;;;;5.15;38.72;101745.25;2078854;28;42394;-74
2022/03/13 00:04:13;;;;;;;5.32;3.70;;;;;;;5.09;39.35;101745.19;2086482;28;45416;-74
2022/03/13 00:05:16;;;;;;;5.93;4.50;;;;;;;5.11;39.48;101746.09;2078645;28;44565;-74
2022/03/13 00:06:31;;;;;;;8.98;4.53;;;;;;;5.06;38.89;101746.06;2070421;28;44231;-74
2022/03/13 00:07:34;;;;;;;7.80;4.68;;;;;;;5.05;39.35;101744.25;2080907;28;38896;-75
2022/03/13 00:08:38;;;;;;;6.45;4.35;;;;;;;5.06;39.22;101740.75;2087086;28;20166;-74
2022/03/13 00:09:39;;;;;;;7.13;4.38;;;;;;;5.07;39.03;101741.63;2086412;28;44252;-75
2022/03/13 00:10:42;;;;;;;6.53;4.30;;;;;;;5.08;38.64;101743.38;2088147;28;20042;-74
2022/03/13 00:11:44;;;;;;;7.15;4.63;;;;;;;5.03;39.43;101747.78;2087312;28;45110;-74
2022/03/13 00:12:48;;;;;;;7.70;4.97;;;;;;;5.01;39.80;101741.53;2088253;28;20080;-75
2022/03/13 00:13:53;;;;;;;8.02;4.22;;;;;;;5.02;38.95;101736.25;2088739;28;21074;-74
2022/03/13 00:14:56;;;;;;;5.78;4.03;;;;;;;5.03;39.01;101734.50;2087142;28;45549;-74
2022/03/13 00:16:10;;;;;;;7.38;4.13;;;;;;;5.06;38.83;101739.84;2087755;28;44441;-74
2022/03/13 00:17:16;;;;;;;7.93;4.28;;;;;;;5.01;39.87;101736.22;2087140;28;44093;-75
2022/03/13 00:18:20;;;;;;;7.65;4.10;;;;;;;4.96;39.87;101737.06;2086570;28;45697;-74
2022/03/13 00:19:22;;;;;;;7.53;4.93;;;;;;;4.95;39.83;101731.72;2086995;28;43455;-76
2022/03/13 00:20:25;;;;;;;7.20;4.50;;;;;;;4.92;39.47;101737.91;2086515;28;44008;-75
2022/03/13 00:21:29;;;;;;;7.32;4.78;;;;;;;4.90;40.12;101737.00;2078099;28;45955;-74
2022/03/13 00:22:33;;;;;;;7.70;4.50;;;;;;;4.86;40.26;101736.94;2079273;28;45494;-74
2022/03/13 00:23:35;;;;;;;7.45;4.75;;;;;;;4.82;40.11;101733.34;2086481;28;45301;-75
2022/03/13 00:24:36;;;;;;;7.60;4.80;;;;;;;4.81;40.42;101738.63;2086619;28;45553;-75
2022/03/13 00:25:39;;;;;;;8.20;4.47;;;;;;;4.78;40.39;101737.72;2086836;28;44151;-75
2022/03/13 00:26:47;;;;;;;6.88;4.20;;;;;;;4.76;40.21;101730.63;2086851;28;44948;-75
2022/03/13 00:27:49;;;;;;;7.70;4.30;;;;;;;4.75;39.99;101739.44;2086996;28;37633;-75
2022/03/13 00:28:50;;;;;;;7.05;4.63;;;;;;;4.73;40.47;101746.47;2087370;28;45564;-75
2022/03/13 00:29:52;;;;;;;7.63;4.60;;;;;;;4.76;39.87;101742.09;2086946;28;45737;-75
2022/03/13 00:30:54;;;;;;;8.10;4.25;;;;;;;4.76;40.12;101736.81;2078474;28;45301;-75
2022/03/13 00:31:56;;;;;;;7.65;4.43;;;;;;;4.75;40.39;101735.00;2078723;28;41060;-75
2022/03/13 00:33:00;;;;;;;9.77;4.47;;;;;;;4.75;40.42;101735.00;2086537;28;42411;-75
2022/03/13 00:34:05;;;;;;;5.70;4.30;;;;;;;4.72;40.07;101747.34;2078617;28;44001;-75
2022/03/13 00:35:08;;;;;;;8.90;4.60;;;;;;;4.68;40.92;101734.91;2080507;28;20042;-75
2022/03/13 00:36:10;;;;;;;7.03;4.25;;;;;;;4.67;40.26;101743.75;2087372;28;44293;-75
2022/03/13 00:37:12;;;;;;;7.05;4.75;;;;;;;4.66;40.46;101736.66;2087483;28;46596;-75
2022/03/13 00:38:13;;;;;;;9.35;4.75;;;;;;;4.67;40.25;101730.50;2087183;28;43731;-75
2022/03/13 00:39:16;;;;;;;9.20;4.53;;;;;;;4.63;40.31;101742.81;2086668;28;45833;-75
2022/03/13 00:40:18;;;;;;;7.38;4.53;;;;;;;4.63;40.00;101734.88;2086745;28;44617;-74
2022/03/13 00:41:21;;;;;;;6.63;4.47;;;;;;;4.61;40.85;101731.28;2079184;28;20069;-75
2022/03/13 00:42:24;;;;;;;6.03;4.57;;;;;;;4.61;40.78;101738.34;2079165;28;45245;-75
2022/03/13 00:43:28;;;;;;;8.30;4.40;;;;;;;4.59;40.66;101741.88;2087011;28;41206;-75
2022/03/13 00:44:30;;;;;;;5.68;4.30;;;;;;;4.54;40.70;101735.63;2086689;28;43353;-75
2022/03/13 00:45:31;;;;;;;6.63;4.38;;;;;;;4.54;40.32;101735.63;2086884;28;46147;-75
2022/03/13 00:46:33;;;;;;;7.55;4.47;;;;;;;4.54;40.89;101737.34;2087758;28;31570;-75
2022/03/13 00:47:35;;;;;;;7.95;4.85;;;;;;;4.54;41.13;101738.28;2087246;28;44500;-75
2022/03/13 00:48:37;;;;;;;8.77;4.57;;;;;;;4.51;40.91;101735.56;2078314;28;46400;-74
2022/03/13 00:49:38;;;;;;;7.90;4.68;;;;;;;4.50;40.57;101736.41;2078415;28;44140;-75
2022/03/13 00:50:43;;;;;;;7.18;5.05;;;;;;;4.46;40.94;101729.28;2087323;28;44169;-75
2022/03/13 00:51:45;;;;;;;6.97;4.60;;;;;;;4.45;41.11;101731.91;2086591;28;35034;-75
2022/03/13 00:52:49;;;;;;;8.07;4.25;;;;;;;4.42;41.16;101730.13;2086880;28;44339;-75
2022/03/13 00:53:51;;;;;;;10.55;4.60;;;;;;;4.42;41.16;101727.47;2087717;28;45747;-75
2022/03/13 00:54:53;;;;;;;9.40;4.60;;;;;;;4.40;41.49;101734.53;2087458;28;43823;-75
2022/03/13 00:55:54;;;;;;;7.50;4.50;;;;;;;4.35;41.20;101723.84;2087056;28;44205;-74
2022/03/13 00:56:56;;;;;;;8.13;4.40;;;;;;;4.34;41.25;101727.38;2087457;28;38318;-74
2022/03/13 00:57:59;;;;;;;6.82;4.28;;;;;;;4.30;41.78;101729.94;2086940;28;44455;-75
2022/03/13 00:59:01;;;;;;;9.95;5.00;;;;;;;4.27;41.54;101730.78;2087515;28;44621;-75
2022/03/13 01:00:05;;;;;;;7.22;4.35;;;;;;;4.19;41.52;101728.00;2086742;28;33901;-75
2022/03/13 01:01:10;;;;;;;5.75;3.65;;;;;;;4.16;41.61;101722.66;2087349;28;20038;-75
2022/03/13 01:02:14;;;;;;;7.40;4.55;;;;;;;4.19;41.73;101729.75;2069849;28;43696;-74
2022/03/13 01:03:34;;;;;;;7.28;4.25;;;;;;;4.18;41.71;101726.22;2073537;28;21167;-74
2022/03/13 01:04:37;;;;;;;8.00;4.25;;;;;;;4.24;41.70;101730.72;2070199;28;45830;-75
2022/03/13 01:05:39;;;;;;;9.23;4.45;;;;;;;4.18;41.68;101734.19;2071994;28;20116;-74
2022/03/13 01:06:42;;;;;;;8.43;4.78;;;;;;;4.14;41.75;101729.69;2086645;28;46301;-75
2022/03/13 01:07:43;;;;;;;9.48;4.85;;;;;;;4.13;41.62;101727.03;2087639;28;43368;-75
2022/03/13 01:08:48;;;;;;;9.35;4.30;;;;;;;4.07;41.97;101719.84;2087824;28;35370;-74
2022/03/13 01:09:50;;;;;;;6.68;4.25;;;;;;;4.10;41.68;101719.91;2078423;28;46374;-74
2022/03/13 01:10:52;;;;;;;8.25;5.10;;;;;;;4.09;42.20;101719.88;2078018;28;42071;-75
2022/03/13 01:11:54;;;;;;;6.43;4.78;;;;;;;4.07;41.74;101722.50;2078374;28;44851;-75
2022/03/13 01:12:55;;;;;;;6.22;4.30;;;;;;;4.05;41.78;101726.88;2078123;28;45930;-75
2022/03/13 01:13:59;;;;;;;7.68;4.40;;;;;;;4.01;42.29;101725.06;2087297;28;39150;-75
2022/03/13 01:15:03;;;;;;;6.38;4.20;;;;;;;4.00;42.24;101728.56;2086800;28;46042;-74
2022/03/13 01:16:18;;;;;;;6.95;4.38;;;;;;;3.96;42.11;101727.63;2086387;28;42124;-75
2022/03/13 01:17:22;;;;;;;6.63;4.22;;;;;;;3.97;42.40;101725.88;2069448;28;45151;-75
2022/03/13 01:18:26;;;;;;;9.43;4.15;;;;;;;3.94;42.19;101721.41;2071916;28;20045;-75
2022/03/13 01:19:27;;;;;;;5.55;4.40;;;;;;;4.00;42.11;101725.91;2087285;28;40274;-75
2022/03/13 01:20:29;;;;;;;5.70;4.05;;;;;;;3.99;42.20;101722.38;2087023;28;46163;-75
2022/03/13 01:21:37;;;;;;;7.30;4.68;;;;;;;3.98;41.75;101728.56;2087149;28;43895;-74
2022/03/13 01:22:39;;;;;;;7.57;4.13;;;;;;;3.98;42.26;101723.25;2087430;28;34586;-75
2022/03/13 01:23:53;;;;;;;8.98;4.80;;;;;;;3.98;42.08;101717.03;2085306;28;44633;-75
2022/03/13 01:24:55;;;;;;;7.13;4.30;;;;;;;3.96;42.21;101718.78;2086488;28;45407;-75
2022/03/13 01:26:22;;;;;;;6.13;3.95;;;;;;;3.92;42.69;101727.56;2087121;28;44713;-75
2022/03/13 01:27:23;;;;;;;7.82;4.72;;;;;;;3.90;42.43;101714.28;2087093;28;42312;-75
2022/03/13 01:28:25;;;;;;;10.88;4.43;;;;;;;3.91;42.42;101713.44;2086201;28;44631;-75
2022/03/13 01:29:32;;;;;;;6.30;3.85;;;;;;;3.88;42.29;101720.44;2087994;28;45934;-75
2022/03/13 01:30:33;;;;;;;8.18;4.47;;;;;;;3.89;41.97;101714.25;2088137;28;45173;-75
2022/03/13 01:31:40;;;;;;;6.15;4.00;;;;;;;3.87;42.41;101714.22;2087412;28;42929;-75
2022/03/13 01:32:52;;;;;;;8.40;4.22;;;;;;;3.84;42.54;101711.53;2088590;28;45520;-75
2022/03/13 01:33:55;;;;;;;8.55;4.55;;;;;;;3.80;42.38;101717.63;2087832;28;45191;-77
2022/03/13 01:34:58;;;;;;;6.72;4.25;;;;;;;3.80;42.62;101717.63;2087362;28;46390;-75
2022/03/13 01:35:59;;;;;;;8.18;4.28;;;;;;;3.78;42.68;101722.00;2087524;28;43427;-74
2022/03/13 01:37:23;;;;;;;7.43;4.50;;;;;;;3.74;43.28;101720.19;2089583;28;20127;-75
2022/03/13 01:38:32;;;;;;;7.07;4.28;;;;;;;3.74;42.56;101723.72;2078203;28;45595;-76
2022/03/13 01:39:34;;;;;;;6.97;4.17;;;;;;;3.75;42.76;101724.59;2086813;28;43835;-76
2022/03/13 01:40:37;;;;;;;9.40;4.35;;;;;;;3.75;42.69;101716.66;2087853;28;46081;-76
2022/03/13 01:41:39;;;;;;;8.25;4.40;;;;;;;3.73;42.56;101721.03;2087827;28;44645;-77
2022/03/13 01:42:40;;;;;;;7.20;4.10;;;;;;;3.67;42.83;101723.59;2087743;28;44020;-76
2022/03/13 01:43:43;;;;;;;7.00;4.40;;;;;;;3.63;43.38;101730.59;2088881;28;45684;-76
2022/03/13 01:44:47;;;;;;;5.47;3.70;;;;;;;3.54;42.79;101715.41;2088995;28;35301;-76
2022/03/13 01:45:51;;;;;;;6.15;4.18;;;;;;;3.52;43.40;101730.38;2089088;28;20108;-76
2022/03/13 01:46:53;;;;;;;8.13;4.43;;;;;;;3.48;43.83;101723.22;2087413;28;42994;-76
2022/03/13 01:47:55;;;;;;;8.02;4.25;;;;;;;3.43;43.57;101723.16;2080126;28;20946;-77
2022/03/13 01:48:59;;;;;;;7.68;4.20;;;;;;;3.42;43.55;101724.00;2079417;28;44386;-76
2022/03/13 01:50:03;;;;;;;9.77;4.93;;;;;;;3.41;43.66;101716.03;2080362;28;20482;-76
2022/03/13 01:51:05;;;;;;;7.70;4.18;;;;;;;3.43;44.20;101716.97;2080007;28;44161;-76
2022/03/13 01:52:07;;;;;;;9.98;4.82;;;;;;;3.42;44.21;101715.19;2079639;28;43083;-76
2022/03/13 01:53:08;;;;;;;7.97;4.65;;;;;;;3.41;44.18;101710.72;2071615;28;45486;-76
2022/03/13 01:54:13;;;;;;;7.38;4.20;;;;;;;3.44;43.76;101710.81;2078383;28;43850;-76
2022/03/13 01:55:16;;;;;;;7.47;4.63;;;;;;;3.45;43.38;101712.59;2087718;28;38380;-76
2022/03/13 01:56:18;;;;;;;6.85;4.40;;;;;;;3.45;44.11;101709.94;2088090;28;44502;-76
2022/03/13 01:57:21;;;;;;;8.23;4.82;;;;;;;3.40;44.24;101701.91;2088064;28;44603;-76
2022/03/13 01:58:24;;;;;;;6.82;4.40;;;;;;;3.42;44.21;101710.78;2089172;28;20041;-76
2022/03/13 01:59:30;;;;;;;9.07;4.70;;;;;;;3.39;43.92;101705.44;2070844;28;45993;-76
2022/03/13 02:00:32;;;;;;;7.07;4.65;;;;;;;3.47;44.09;101710.00;2073136;28;34533;-76
2022/03/13 02:01:35;;;;;;;10.30;4.55;;;;;;;3.41;43.98;101703.72;2078858;28;45333;-76
2022/03/13 02:02:38;;;;;;;11.82;4.82;;;;;;;3.43;44.01;101701.97;2079976;28;46081;-76
2022/03/13 02:03:40;;;;;;;7.63;4.60;;;;;;;3.42;43.99;101713.41;2087565;28;44118;-76
2022/03/13 02:04:42;;;;;;;6.75;4.45;;;;;;;3.39;44.19;101702.78;2079557;28;46540;-76
2022/03/13 02:05:44;;;;;;;9.10;4.18;;;;;;;3.40;44.06;101698.38;2079738;28;43509;-76
2022/03/13 02:06:46;;;;;;;6.85;4.22;;;;;;;3.39;43.73;101704.53;2087694;28;37984;-76
2022/03/13 02:07:51;;;;;;;7.10;4.40;;;;;;;3.36;44.19;101697.44;2088546;28;44431;-76
2022/03/13 02:08:54;;;;;;;7.10;4.57;;;;;;;3.37;44.19;101701.84;2088824;28;20047;-76
2022/03/13 02:09:56;;;;;;;5.32;4.00;;;;;;;3.33;44.64;101700.00;2088156;28;46565;-76
2022/03/13 02:10:57;;;;;;;8.25;5.25;;;;;;;3.30;44.17;101701.72;2088232;28;43287;-76
2022/03/13 02:12:01;;;;;;;8.15;4.60;;;;;;;3.33;43.83;101705.31;2088231;28;44303;-75
2022/03/13 02:13:03;;;;;;;6.63;4.50;;;;;;;3.32;44.24;101698.25;2089889;28;20854;-76
2022/03/13 02:14:05;;;;;;;8.13;4.60;;;;;;;3.31;44.25;101700.84;2087249;28;44137;-76
2022/03/13 02:15:08;;;;;;;6.22;4.10;;;;;;;3.34;44.37;101704.47;2088748;28;35681;-76
2022/03/13 02:16:10;;;;;;;7.38;4.35;;;;;;;3.30;44.49;101699.94;2088487;28;41043;-76
2022/03/13 02:17:11;;;;;;;7.95;4.93;;;;;;;3.27;44.69;101697.25;2088364;28;44318;-76
2022/03/13 02:18:13;;;;;;;6.70;4.60;;;;;;;3.24;45.38;101694.53;2087885;28;36755;-76
2022/03/13 02:19:17;;;;;;;6.65;4.47;;;;;;;3.24;44.62;101699.84;2086806;28;42300;-76
2022/03/13 02:20:26;;;;;;;6.88;4.38;;;;;;;3.21;44.64;101694.47;2088656;28;20038;-76
2022/03/13 02:21:31;;;;;;;8.00;4.68;;;;;;;3.19;44.42;101701.50;2078979;28;45598;-75
2022/03/13 02:22:33;;;;;;;8.48;4.50;;;;;;;3.22;44.49;101701.56;2079144;28;45291;-76
2022/03/13 02:23:37;;;;;;;9.07;4.65;;;;;;;3.19;44.47;101693.56;2079391;28;46480;-76
2022/03/13 02:24:39;;;;;;;7.30;4.50;;;;;;;3.16;44.89;101698.78;2080509;28;20030;-76
2022/03/13 02:25:41;;;;;;;7.53;4.53;;;;;;;3.14;44.61;101693.50;2079079;28;44444;-76
2022/03/13 02:27:06;;;;;;;8.45;4.55;;;;;;;3.17;45.07;101692.66;2087342;28;45730;-76
2022/03/13 02:28:08;;;;;;;7.57;4.20;;;;;;;3.15;45.15;101697.03;2087698;28;36688;-76
2022/03/13 02:29:14;;;;;;;9.27;5.50;;;;;;;3.11;45.10;101692.53;2079202;28;46545;-76
2022/03/13 02:30:15;;;;;;;7.72;4.82;;;;;;;3.10;45.54;101691.63;2071470;28;42124;-76
2022/03/13 02:31:27;;;;;;;6.88;4.60;;;;;;;3.08;45.47;101697.75;2078984;28;44070;-76
2022/03/13 02:32:29;;;;;;;6.55;4.55;;;;;;;3.08;45.01;101698.66;2087502;28;45751;-76
2022/03/13 02:33:31;;;;;;;6.40;4.53;;;;;;;3.08;44.50;101696.00;2087116;28;45434;-76
2022/03/13 02:34:33;;;;;;;7.80;5.10;;;;;;;3.08;45.06;101703.94;2087754;28;44960;-76
2022/03/13 02:35:35;;;;;;;8.88;4.68;;;;;;;3.09;44.51;101702.16;2088113;28;41961;-76
2022/03/13 02:36:36;;;;;;;8.82;4.55;;;;;;;3.06;44.74;101695.06;2087655;28;45392;-76
2022/03/13 02:37:41;;;;;;;7.15;4.88;;;;;;;3.06;44.96;101700.38;2087378;28;44579;-76
2022/03/13 02:38:48;;;;;;;9.63;4.90;;;;;;;3.06;44.88;101697.72;2071408;28;45254;-76
2022/03/13 02:39:49;;;;;;;8.75;4.43;;;;;;;3.01;45.34;101694.97;2071536;28;28399;-76
2022/03/13 02:40:53;;;;;;;9.07;5.28;;;;;;;3.02;45.80;101706.47;2086327;28;45964;-76
2022/03/13 02:41:55;;;;;;;7.93;5.25;;;;;;;2.99;44.93;101699.34;2087081;28;43878;-76
2022/03/13 02:42:59;;;;;;;7.85;4.80;;;;;;;2.99;44.97;101699.34;2080233;28;20041;-76
2022/03/13 02:44:01;;;;;;;7.07;4.75;;;;;;;2.98;45.66;101697.56;2079126;28;41929;-76
2022/03/13 02:45:05;;;;;;;8.23;5.15;;;;;;;2.92;45.97;101697.44;2088988;28;20033;-76
2022/03/13 02:46:20;;;;;;;7.95;4.97;;;;;;;2.97;45.34;101690.50;2088220;28;44511;-75
2022/03/13 02:47:22;;;;;;;7.43;4.90;;;;;;;2.91;46.01;101694.75;2088209;28;44374;-76
2022/03/13 02:48:23;;;;;;;8.57;4.53;;;;;;;2.87;45.62;101693.78;2087943;28;35217;-76
2022/03/13 02:49:28;;;;;;;7.35;5.20;;;;;;;2.85;45.49;101692.88;2078178;28;43397;-76
2022/03/13 02:50:30;;;;;;;7.60;4.60;;;;;;;2.81;45.74;101691.91;2071015;28;43982;-75
2022/03/13 02:51:32;;;;;;;11.25;5.60;;;;;;;2.81;46.07;101694.56;2070989;28;44432;-76
2022/03/13 02:52:34;;;;;;;7.82;4.65;;;;;;;2.83;45.91;101691.97;2079403;28;42780;-76
2022/03/13 02:53:35;;;;;;;7.85;4.72;;;;;;;2.81;46.52;101681.34;2087497;28;35262;-76
2022/03/13 02:54:37;;;;;;;9.00;5.22;;;;;;;2.77;45.91;101687.44;2087688;28;41336;-76
2022/03/13 02:55:39;;;;;;;9.18;4.95;;;;;;;2.76;45.97;101674.19;2087859;28;45640;-76
2022/03/13 02:56:45;;;;;;;7.18;4.68;;;;;;;2.77;46.70;101673.34;2087844;28;42755;-76
2022/03/13 02:57:47;;;;;;;8.15;4.45;;;;;;;2.75;45.84;101675.94;2087583;28;45050;-76
2022/03/13 02:58:52;;;;;;;8.80;5.35;;;;;;;2.75;46.79;101677.69;2087766;28;44040;-76
2022/03/13 02:59:54;;;;;;;9.68;5.10;;;;;;;2.70;46.82;101680.22;2087342;28;42008;-76
2022/03/13 03:00:56;;;;;;;8.70;5.40;;;;;;;2.66;46.47;101681.91;2088148;28;45959;-76
2022/03/13 03:02:02;;;;;;;7.05;4.65;;;;;;;2.68;46.57;101680.19;2087767;28;46327;-76
2022/03/13 03:03:03;;;;;;;7.65;4.93;;;;;;;2.66;47.20;101684.56;2086956;28;44041;-75
2022/03/13 03:04:06;;;;;;;11.05;5.18;;;;;;;2.65;46.54;101682.75;2086784;28;44262;-76
2022/03/13 03:05:09;;;;;;;7.88;5.15;;;;;;;2.63;46.44;101679.19;2077984;28;45958;-75
2022/03/13 03:06:12;;;;;;;9.02;4.95;;;;;;;2.63;46.17;101687.13;2078952;28;42777;-75
2022/03/13 03:07:16;;;;;;;6.95;4.60;;;;;;;2.61;46.21;101680.94;2086852;28;48361;-75
2022/03/13 03:08:18;;;;;;;9.68;4.40;;;;;;;2.60;46.57;101679.16;2087167;28;42307;-75
2022/03/13 03:09:19;;;;;;;9.20;4.47;;;;;;;2.60;46.02;101683.53;2078779;28;45707;-76
2022/03/13 03:10:23;;;;;;;9.88;5.35;;;;;;;2.60;46.34;101676.53;2077980;28;45701;-75
2022/03/13 03:11:25;;;;;;;7.93;5.30;;;;;;;2.58;46.83;101680.84;2087869;28;36110;-75
2022/03/13 03:12:27;;;;;;;9.10;4.85;;;;;;;2.58;46.65;101686.13;2087787;28;46457;-75
2022/03/13 03:13:29;;;;;;;11.27;5.30;;;;;;;2.56;45.94;101684.34;2088050;28;42469;-75
2022/03/13 03:14:33;;;;;;;9.45;5.38;;;;;;;2.58;46.91;101690.53;2088084;28;45187;-76
2022/03/13 03:15:37;;;;;;;8.80;4.35;;;;;;;2.55;47.23;101688.75;2087694;28;44807;-76
2022/03/13 03:16:39;;;;;;;11.75;5.15;;;;;;;2.53;46.71;101686.91;2087236;28;41317;-76
2022/03/13 03:17:40;;;;;;;8.73;5.00;;;;;;;2.49;46.31;101685.94;2087334;28;43843;-75
2022/03/13 03:18:42;;;;;;;7.47;5.07;;;;;;;2.46;47.77;101686.78;2083209;28;43553;-75
2022/03/13 03:19:44;;;;;;;9.95;5.47;;;;;;;2.43;47.46;101685.81;2086831;28;37808;-76
2022/03/13 03:20:47;;;;;;;12.05;5.10;;;;;;;2.44;46.77;101683.22;2087474;28;44927;-76
2022/03/13 03:21:49;;;;;;;8.38;5.35;;;;;;;2.45;46.84;101681.44;2088720;28;20029;-76
2022/03/13 03:22:54;;;;;;;8.38;5.13;;;;;;;2.44;47.58;101688.50;2089431;28;20052;-75
2022/03/13 03:23:56;;;;;;;11.70;5.65;;;;;;;2.42;47.27;101684.00;2078430;28;41110;-75
2022/03/13 03:24:59;;;;;;;7.88;5.18;;;;;;;2.44;47.21;101679.66;2079837;28;20018;-75
2022/03/13 03:26:06;;;;;;;10.02;4.93;;;;;;;2.42;47.12;101684.94;2087998;28;20037;-75
2022/03/13 03:27:07;;;;;;;6.65;4.78;;;;;;;2.40;47.31;101685.75;2087237;28;42696;-75
2022/03/13 03:28:10;;;;;;;8.75;5.22;;;;;;;2.42;46.91;101679.66;2087145;28;44311;-76
2022/03/13 03:29:12;;;;;;;7.95;5.15;;;;;;;2.40;46.99;101675.16;2087568;28;43425;-76
2022/03/13 03:30:14;;;;;;;10.02;5.57;;;;;;;2.41;47.82;101692.81;2086922;28;45279;-76
2022/03/13 03:31:16;;;;;;;9.02;5.60;;;;;;;2.41;47.13;101676.97;2078359;28;46418;-74
2022/03/13 03:32:18;;;;;;;7.90;4.93;;;;;;;2.40;47.29;101680.44;2079187;28;43655;-74
2022/03/13 03:33:19;;;;;;;11.02;5.20;;;;;;;2.45;46.75;101690.25;2088062;28;45826;-75
2022/03/13 03:34:24;;;;;;;9.25;5.38;;;;;;;2.38;47.18;101684.81;2087985;28;45635;-76
2022/03/13 03:35:26;;;;;;;8.88;5.47;;;;;;;2.36;47.48;101681.25;2088256;28;37553;-76
2022/03/13 03:36:27;;;;;;;8.88;5.45;;;;;;;2.36;46.61;101683.91;2087907;28;46057;-76
2022/03/13 03:37:33;;;;;;;9.75;5.10;;;;;;;2.34;47.10;101681.22;2086924;28;44315;-76
2022/03/13 03:38:35;;;;;;;7.47;4.90;;;;;;;2.33;46.81;101689.09;2087104;28;44155;-72
2022/03/13 03:39:37;;;;;;;9.13;5.97;;;;;;;2.31;47.49;101685.53;2078549;28;45947;-76
2022/03/13 03:40:39;;;;;;;9.80;5.43;;;;;;;2.33;47.34;101689.09;2078883;28;42739;-76
2022/03/13 03:41:45;;;;;;;8.55;5.53;;;;;;;2.29;47.40;101689.03;2079773;28;20075;-74
2022/03/13 03:42:47;;;;;;;8.65;5.05;;;;;;;2.32;47.44;101682.94;2071512;28;43435;-76
2022/03/13 03:43:48;;;;;;;11.00;5.18;;;;;;;2.31;46.74;101678.50;2078679;28;45308;-75
2022/03/13 03:44:50;;;;;;;8.15;5.30;;;;;;;2.32;46.85;101676.75;2078214;28;44624;-76
2022/03/13 03:45:54;;;;;;;7.80;5.15;;;;;;;2.32;47.25;101679.41;2078998;28;43746;-76
2022/03/13 03:46:56;;;;;;;9.38;5.47;;;;;;;2.28;47.56;101686.38;2079414;28;26425;-76
2022/03/13 03:47:59;;;;;;;16.40;5.53;;;;;;;2.25;47.89;101681.88;2087212;28;45617;-77
2022/03/13 03:49:03;;;;;;;10.25;5.15;;;;;;;2.20;47.79;101675.59;2086794;28;45508;-76
2022/03/13 03:50:05;;;;;;;10.63;5.50;;;;;;;2.22;48.00;101681.81;2086877;28;44927;-76
2022/03/13 03:51:07;;;;;;;8.82;5.05;;;;;;;2.23;47.44;101680.97;2078371;28;43883;-76
2022/03/13 03:52:09;;;;;;;9.45;5.13;;;;;;;2.24;47.63;101682.75;2079034;28;20041;-76
2022/03/13 03:53:10;;;;;;;8.60;5.68;;;;;;;2.23;48.06;101680.97;2087254;28;45690;-75
2022/03/13 03:54:14;;;;;;;9.40;4.88;;;;;;;2.19;48.21;101681.75;2087701;28;45401;-74
2022/03/13 03:55:16;;;;;;;10.48;5.53;;;;;;;2.17;48.34;101690.50;2086423;28;46670;-75
2022/03/13 03:56:18;;;;;;;9.82;5.22;;;;;;;2.14;48.08;101678.13;2079116;28;41384;-74
2022/03/13 03:57:20;;;;;;;9.23;5.82;;;;;;;2.12;47.77;101679.84;2078984;28;44286;-75
2022/03/13 03:58:21;;;;;;;13.35;5.43;;;;;;;2.14;47.76;101685.16;2087440;28;46195;-74
2022/03/13 03:59:23;;;;;;;8.52;5.40;;;;;;;2.12;48.70;101673.63;2087616;28;43638;-74
2022/03/13 04:00:26;;;;;;;8.63;5.97;;;;;;;2.08;47.72;101680.59;2087731;28;28923;-74
2022/03/13 04:01:38;;;;;;;11.45;5.57;;;;;;;2.02;48.05;101681.34;2087675;28;41201;-74
2022/03/13 04:02:41;;;;;;;10.45;5.10;;;;;;;1.98;48.10;101682.13;2087406;28;45537;-74
2022/03/13 04:03:44;;;;;;;11.07;5.47;;;;;;;1.98;48.18;101681.25;2087466;28;33800;-74
2022/03/13 04:04:49;;;;;;;10.60;5.57;;;;;;;1.98;48.27;101682.13;2086807;28;45265;-74
2022/03/13 04:05:50;;;;;;;10.40;5.60;;;;;;;1.95;48.55;101679.41;2087744;28;44934;-75
2022/03/13 04:06:53;;;;;;;7.65;5.65;;;;;;;1.96;48.63;101681.22;2087994;28;20127;-75
2022/03/13 04:07:55;;;;;;;10.25;5.65;;;;;;;1.96;48.59;101682.97;2086831;28;44319;-74
2022/03/13 04:08:57;;;;;;;7.95;5.53;;;;;;;1.95;48.66;101676.78;2087840;28;37056;-75
2022/03/13 04:10:01;;;;;;;10.20;5.75;;;;;;;1.89;48.53;101677.50;2087477;28;42134;-75
2022/03/13 04:11:03;;;;;;;8.48;5.35;;;;;;;1.90;48.47;101674.03;2086742;28;45352;-74
2022/03/13 04:12:07;;;;;;;8.20;5.55;;;;;;;1.91;48.37;101681.09;2087077;28;38847;-74
2022/03/13 04:13:09;;;;;;;9.43;5.45;;;;;;;1.87;48.94;101675.72;2087739;28;43897;-74
2022/03/13 04:14:11;;;;;;;11.88;5.80;;;;;;;1.86;48.53;101674.78;2087176;28;44974;-74
2022/03/13 04:15:15;;;;;;;8.52;5.30;;;;;;;1.88;47.99;101681.03;2087785;28;43325;-74
2022/03/13 04:16:18;;;;;;;9.68;5.68;;;;;;;1.86;48.49;101682.72;2087753;28;20033;-74
2022/03/13 04:17:20;;;;;;;8.07;5.10;;;;;;;1.87;48.65;101675.72;2086744;28;44797;-74
2022/03/13 04:18:22;;;;;;;8.77;5.05;;;;;;;1.84;48.86;101679.16;2086555;28;45696;-74
2022/03/13 04:19:26;;;;;;;8.43;5.47;;;;;;;1.90;48.40;101681.03;2088182;28;20807;-74
2022/03/13 04:20:28;;;;;;;9.23;4.85;;;;;;;1.88;48.37;101675.75;2087442;28;43326;-74
2022/03/13 04:21:32;;;;;;;8.80;5.60;;;;;;;1.84;49.09;101679.16;2086454;28;45574;-74
2022/03/13 04:22:34;;;;;;;10.88;5.28;;;;;;;1.83;48.50;101680.03;2086229;28;42261;-75
2022/03/13 04:23:36;;;;;;;8.45;5.05;;;;;;;1.82;48.34;101679.97;2087279;28;43848;-74
2022/03/13 04:24:38;;;;;;;7.80;4.88;;;;;;;1.87;48.89;101684.50;2087744;28;46096;-74
2022/03/13 04:25:40;;;;;;;13.65;5.57;;;;;;;1.85;48.76;101682.69;2087911;28;34512;-74
2022/03/13 04:26:48;;;;;;;8.73;5.80;;;;;;;1.84;48.68;101681.78;2086356;28;43073;-74
2022/03/13 04:27:50;;;;;;;11.45;4.85;;;;;;;1.82;48.17;101686.13;2086423;28;45798;-75
2022/03/13 04:28:52;;;;;;;9.25;5.43;;;;;;;1.84;48.86;101681.78;2079432;28;20053;-74
2022/03/13 04:29:54;;;;;;;9.20;5.80;;;;;;;1.83;48.61;101690.59;2070893;28;46320;-75
2022/03/13 04:30:59;;;;;;;9.40;5.20;;;;;;;1.79;48.42;101685.16;2079280;28;42114;-74
2022/03/13 04:32:05;;;;;;;9.35;5.60;;;;;;;1.83;48.34;101682.66;2086768;28;44278;-74
2022/03/13 04:33:07;;;;;;;11.27;5.80;;;;;;;1.79;48.91;101680.78;2087003;28;45226;-74
2022/03/13 04:34:10;;;;;;;9.50;5.82;;;;;;;1.81;49.22;101680.81;2086699;28;42512;-74
2022/03/13 04:35:12;;;;;;;9.20;5.65;;;;;;;1.83;48.36;101681.75;2086767;28;45311;-74
2022/03/13 04:36:14;;;;;;;8.85;5.47;;;;;;;1.79;48.29;101682.53;2087017;28;41579;-74
2022/03/13 04:37:17;;;;;;;9.82;5.25;;;;;;;1.77;48.56;101687.78;2086490;28;43981;-74
2022/03/13 04:38:19;;;;;;;10.07;5.35;;;;;;;1.79;48.57;101690.44;2086588;28;46641;-74
2022/03/13 04:39:23;;;;;;;12.98;5.95;;;;;;;1.79;48.94;101685.16;2086600;28;27118;-74
2022/03/13 04:40:25;;;;;;;12.15;6.10;;;;;;;1.83;48.24;101687.03;2086784;28;45699;-75
2022/03/13 04:41:27;;;;;;;9.45;5.68;;;;;;;1.78;48.59;101694.84;2087552;28;36974;-75
2022/03/13 04:42:29;;;;;;;9.60;5.72;;;;;;;1.76;48.39;101691.28;2087372;28;44268;-74
2022/03/13 04:43:31;;;;;;;10.88;6.00;;;;;;;1.77;48.86;101693.06;2087613;28;46159;-74
2022/03/13 04:44:33;;;;;;;10.70;6.00;;;;;;;1.77;48.80;101689.53;2086850;28;42285;-74
2022/03/13 04:45:34;;;;;;;9.50;5.47;;;;;;;1.81;48.47;101687.00;2078548;28;45989;-74
2022/03/13 04:46:36;;;;;;;9.75;5.13;;;;;;;1.81;48.18;101696.66;2070658;28;39236;-74
2022/03/13 04:47:38;;;;;;;8.10;5.53;;;;;;;1.78;48.22;101689.56;2078586;28;44079;-74
2022/03/13 04:48:40;;;;;;;8.70;5.32;;;;;;;1.79;48.91;101691.34;2087364;28;46502;-75
2022/03/13 04:49:42;;;;;;;10.52;5.72;;;;;;;1.75;48.36;101694.75;2087241;28;43689;-75
2022/03/13 04:50:47;;;;;;;9.43;5.63;;;;;;;1.74;48.87;101690.31;2087293;28;44341;-75
2022/03/13 04:51:49;;;;;;;8.63;4.97;;;;;;;1.72;48.70;101689.41;2087172;28;44164;-75
2022/03/13 04:52:51;;;;;;;9.20;5.55;;;;;;;1.71;48.50;101692.91;2087054;28;44068;-74
2022/03/13 04:53:53;;;;;;;7.47;5.65;;;;;;;1.73;48.69;101685.91;2086982;28;44039;-74
2022/03/13 04:54:57;;;;;;;7.63;5.32;;;;;;;1.69;48.86;101684.06;2087650;28;31596;-76
2022/03/13 04:55:58;;;;;;;9.05;5.50;;;;;;;1.72;48.36;101678.84;2087512;28;44836;-74
2022/03/13 04:57:00;;;;;;;8.27;5.35;;;;;;;1.71;48.08;101688.50;2087005;28;46762;-75
2022/03/13 04:58:02;;;;;;;12.15;5.20;;;;;;;1.68;48.92;101682.25;2087711;28;26706;-77